Terminal Aerodrome Forecast
Issued by NWS

Home | Current Version | Previous Version | Text Only | Print | Product List | Glossary On
Versions: 1 2 3 4 5 6 7 8 9 10 11 12 13 14 15 16 17 18 19 20 21 22 23 24
123
FTUS41 KBUF 232103 AAA
TAFJHW
TAF AMD
KJHW 232103Z 2321/2418 17005KT P6SM SCT250
     FM240200 16005KT P6SM BKN100
     FM240600 17014KT P6SM OVC070
     FM240800 18013KT P6SM VCSH OVC070
     FM240900 18015KT 6SM -RA OVC035
     FM241200 20017KT P6SM BKN020 WS020/21040KT
      AMD LTD TO CLD VIS AND WIND=

USA.gov is the U.S. government's official web portal to all federal, state and local government web resources and services.